sensor_id;sensor_type;location;lat;lon;timestamp;pressure;altitude;pressure_sealevel;temperature;humidity
74169;BME280;62523;53.336;83.690;2023-07-29T00:04:49;98051.16;;;19.54;100.00
74169;BME280;62523;53.336;83.690;2023-07-29T00:09:50;98052.66;;;19.49;100.00
74169;BME280;62523;53.336;83.690;2023-07-29T00:14:52;98056.19;;;18.77;100.00
74169;BME280;62523;53.336;83.690;2023-07-29T00:19:54;98060.63;;;19.17;100.00
74169;BME280;62523;53.336;83.690;2023-07-29T00:24:55;98064.03;;;18.70;100.00
74169;BME280;62523;53.336;83.690;2023-07-29T00:29:58;98065.22;;;18.84;100.00
74169;BME280;62523;53.336;83.690;2023-07-29T00:34:59;98066.66;;;19.51;100.00
74169;BME280;62523;53.336;83.690;2023-07-29T00:40:02;98075.22;;;20.63;100.00
74169;BME280;62523;53.336;83.690;2023-07-29T00:45:06;98068.28;;;19.29;100.00
74169;BME280;62523;53.336;83.690;2023-07-29T00:50:13;98078.38;;;18.94;100.00
74169;BME280;62523;53.336;83.690;2023-07-29T00:55:15;98080.84;;;20.22;100.00
74169;BME280;62523;53.336;83.690;2023-07-29T01:00:17;98072.50;;;21.31;100.00
74169;BME280;62523;53.336;83.690;2023-07-29T01:05:19;98063.72;;;21.37;100.00
74169;BME280;62523;53.336;83.690;2023-07-29T01:20:42;98071.31;;;21.48;100.00
74169;BME280;62523;53.336;83.690;2023-07-29T01:25:45;98076.59;;;21.93;100.00
74169;BME280;62523;53.336;83.690;2023-07-29T01:30:49;98078.09;;;21.80;100.00
74169;BME280;62523;53.336;83.690;2023-07-29T01:36:01;98075.84;;;22.35;100.00
74169;BME280;62523;53.336;83.690;2023-07-29T01:41:04;98083.59;;;23.01;100.00
74169;BME280;62523;53.336;83.690;2023-07-29T01:46:07;98089.72;;;22.24;100.00
74169;BME280;62523;53.336;83.690;2023-07-29T01:51:12;98098.44;;;22.11;100.00
74169;BME280;62523;53.336;83.690;2023-07-29T01:56:13;98097.44;;;22.12;100.00
74169;BME280;62523;53.336;83.690;2023-07-29T02:01:24;98103.91;;;21.81;100.00
74169;BME280;62523;53.336;83.690;2023-07-29T02:06:25;98101.63;;;22.00;100.00
74169;BME280;62523;53.336;83.690;2023-07-29T02:11:28;98100.69;;;22.07;100.00
74169;BME280;62523;53.336;83.690;2023-07-29T02:16:31;98116.38;;;21.59;100.00
74169;BME280;62523;53.336;83.690;2023-07-29T02:21:34;98123.81;;;21.42;100.00
74169;BME280;62523;53.336;83.690;2023-07-29T02:26:35;98125.88;;;20.79;100.00
74169;BME280;62523;53.336;83.690;2023-07-29T02:31:37;98125.06;;;21.32;100.00
74169;BME280;62523;53.336;83.690;2023-07-29T02:36:39;98117.53;;;21.12;100.00
74169;BME280;62523;53.336;83.690;2023-07-29T02:41:41;98118.78;;;21.39;100.00
74169;BME280;62523;53.336;83.690;2023-07-29T02:46:43;98117.66;;;21.78;100.00
74169;BME280;62523;53.336;83.690;2023-07-29T02:51:44;98121.94;;;21.58;100.00
74169;BME280;62523;53.336;83.690;2023-07-29T02:56:46;98114.34;;;21.76;100.00
74169;BME280;62523;53.336;83.690;2023-07-29T03:01:47;98115.94;;;22.07;100.00
74169;BME280;62523;53.336;83.690;2023-07-29T03:06:49;98121.34;;;21.92;100.00
74169;BME280;62523;53.336;83.690;2023-07-29T03:11:50;98128.34;;;22.44;100.00
74169;BME280;62523;53.336;83.690;2023-07-29T03:16:53;98138.22;;;22.07;100.00
74169;BME280;62523;53.336;83.690;2023-07-29T03:21:55;98133.75;;;22.29;100.00
74169;BME280;62523;53.336;83.690;2023-07-29T03:26:56;98133.19;;;22.34;100.00
74169;BME280;62523;53.336;83.690;2023-07-29T03:31:58;98128.09;;;22.39;100.00
74169;BME280;62523;53.336;83.690;2023-07-29T03:37:00;98131.66;;;22.10;100.00
74169;BME280;62523;53.336;83.690;2023-07-29T03:42:02;98126.09;;;22.26;100.00
74169;BME280;62523;53.336;83.690;2023-07-29T03:47:04;98122.75;;;22.89;100.00
74169;BME280;62523;53.336;83.690;2023-07-29T03:52:06;98118.78;;;22.85;100.00
74169;BME280;62523;53.336;83.690;2023-07-29T03:57:08;98116.97;;;22.92;100.00
74169;BME280;62523;53.336;83.690;2023-07-29T04:02:09;98120.72;;;23.19;100.00
74169;BME280;62523;53.336;83.690;2023-07-29T04:07:11;98127.50;;;23.43;99.70
74169;BME280;62523;53.336;83.690;2023-07-29T04:12:13;98124.72;;;23.30;98.39
74169;BME280;62523;53.336;83.690;2023-07-29T04:17:14;98127.25;;;23.38;95.46
74169;BME280;62523;53.336;83.690;2023-07-29T04:22:16;98123.50;;;23.04;95.61
74169;BME280;62523;53.336;83.690;2023-07-29T04:27:17;98121.09;;;23.79;91.35
74169;BME280;62523;53.336;83.690;2023-07-29T04:32:19;98123.13;;;23.07;96.94
74169;BME280;62523;53.336;83.690;2023-07-29T04:37:20;98128.31;;;23.79;95.93
74169;BME280;62523;53.336;83.690;2023-07-29T04:42:22;98131.34;;;23.69;89.41
74169;BME280;62523;53.336;83.690;2023-07-29T04:47:24;98116.75;;;23.43;89.45
74169;BME280;62523;53.336;83.690;2023-07-29T04:52:26;98121.31;;;23.84;84.44
74169;BME280;62523;53.336;83.690;2023-07-29T04:57:27;98124.59;;;23.80;82.47
74169;BME280;62523;53.336;83.690;2023-07-29T05:02:30;98125.94;;;24.04;77.05
74169;BME280;62523;53.336;83.690;2023-07-29T05:07:31;98109.13;;;23.88;70.07
74169;BME280;62523;53.336;83.690;2023-07-29T05:12:33;98115.03;;;23.36;76.82
74169;BME280;62523;53.336;83.690;2023-07-29T05:17:35;98114.88;;;23.79;76.76
74169;BME280;62523;53.336;83.690;2023-07-29T05:22:36;98125.94;;;23.62;76.42
74169;BME280;62523;53.336;83.690;2023-07-29T05:27:38;98127.19;;;23.60;76.63
74169;BME280;62523;53.336;83.690;2023-07-29T05:32:39;98134.03;;;24.17;73.87
74169;BME280;62523;53.336;83.690;2023-07-29T05:37:41;98129.56;;;23.83;73.21
74169;BME280;62523;53.336;83.690;2023-07-29T05:42:43;98133.50;;;24.42;71.35
74169;BME280;62523;53.336;83.690;2023-07-29T05:47:46;98131.31;;;24.04;70.10
74169;BME280;62523;53.336;83.690;2023-07-29T05:52:49;98115.16;;;23.97;70.64
74169;BME280;62523;53.336;83.690;2023-07-29T05:58:00;98117.50;;;24.14;70.74
74169;BME280;62523;53.336;83.690;2023-07-29T06:03:02;98128.94;;;24.36;69.45
74169;BME280;62523;53.336;83.690;2023-07-29T06:08:04;98115.53;;;24.62;64.66
74169;BME280;62523;53.336;83.690;2023-07-29T06:13:06;98112.84;;;24.69;67.86
74169;BME280;62523;53.336;83.690;2023-07-29T06:18:07;98114.94;;;24.87;66.94
74169;BME280;62523;53.336;83.690;2023-07-29T06:23:09;98106.34;;;24.43;60.79
74169;BME280;62523;53.336;83.690;2023-07-29T06:28:11;98104.13;;;24.53;57.08
74169;BME280;62523;53.336;83.690;2023-07-29T06:33:12;98100.38;;;25.08;53.16
74169;BME280;62523;53.336;83.690;2023-07-29T06:38:14;98100.81;;;25.05;51.18
74169;BME280;62523;53.336;83.690;2023-07-29T06:43:16;98108.88;;;25.11;53.72
74169;BME280;62523;53.336;83.690;2023-07-29T06:48:18;98102.03;;;25.16;52.22
74169;BME280;62523;53.336;83.690;2023-07-29T06:53:21;98104.13;;;25.07;54.72
74169;BME280;62523;53.336;83.690;2023-07-29T06:58:22;98095.41;;;25.25;57.28
74169;BME280;62523;53.336;83.690;2023-07-29T07:03:24;98108.47;;;25.01;55.55
74169;BME280;62523;53.336;83.690;2023-07-29T07:08:26;98113.88;;;24.88;56.52
74169;BME280;62523;53.336;83.690;2023-07-29T07:13:27;98121.75;;;24.96;55.60
74169;BME280;62523;53.336;83.690;2023-07-29T07:18:29;98121.53;;;25.18;57.72
74169;BME280;62523;53.336;83.690;2023-07-29T07:23:30;98121.75;;;25.36;60.75
74169;BME280;62523;53.336;83.690;2023-07-29T07:28:32;98120.03;;;25.48;59.88
74169;BME280;62523;53.336;83.690;2023-07-29T07:33:33;98118.41;;;25.07;55.16
74169;BME280;62523;53.336;83.690;2023-07-29T07:38:35;98110.16;;;25.22;57.03
74169;BME280;62523;53.336;83.690;2023-07-29T07:43:36;98118.41;;;25.14;58.72
74169;BME280;62523;53.336;83.690;2023-07-29T07:48:38;98121.69;;;26.14;55.63
74169;BME280;62523;53.336;83.690;2023-07-29T07:53:40;98118.34;;;25.61;55.25
74169;BME280;62523;53.336;83.690;2023-07-29T07:58:41;98114.75;;;25.80;54.37
74169;BME280;62523;53.336;83.690;2023-07-29T08:03:43;98103.75;;;25.82;54.05
74169;BME280;62523;53.336;83.690;2023-07-29T08:08:44;98110.34;;;25.99;54.46
74169;BME280;62523;53.336;83.690;2023-07-29T08:13:46;98114.69;;;25.35;56.36
74169;BME280;62523;53.336;83.690;2023-07-29T08:18:47;98115.38;;;25.89;54.69
74169;BME280;62523;53.336;83.690;2023-07-29T08:23:49;98108.22;;;26.08;54.04
74169;BME280;62523;53.336;83.690;2023-07-29T08:28:51;98119.25;;;25.34;58.05
74169;BME280;62523;53.336;83.690;2023-07-29T08:33:52;98109.00;;;25.63;54.66
74169;BME280;62523;53.336;83.690;2023-07-29T08:38:54;98115.19;;;25.70;56.17
74169;BME280;62523;53.336;83.690;2023-07-29T08:44:23;98122.75;;;26.07;54.54
74169;BME280;62523;53.336;83.690;2023-07-29T08:49:26;98124.06;;;25.98;53.79
74169;BME280;62523;53.336;83.690;2023-07-29T08:54:28;98130.44;;;26.10;52.40
74169;BME280;62523;53.336;83.690;2023-07-29T08:59:30;98131.84;;;26.19;53.42
74169;BME280;62523;53.336;83.690;2023-07-29T09:04:32;98132.78;;;25.86;50.73
74169;BME280;62523;53.336;83.690;2023-07-29T09:09:34;98138.66;;;25.63;50.08
74169;BME280;62523;53.336;83.690;2023-07-29T09:14:36;98145.81;;;25.24;52.65
74169;BME280;62523;53.336;83.690;2023-07-29T09:19:38;98143.28;;;25.49;53.28
74169;BME280;62523;53.336;83.690;2023-07-29T09:24:40;98159.91;;;25.26;55.45
74169;BME280;62523;53.336;83.690;2023-07-29T09:29:42;98153.47;;;25.34;55.17
74169;BME280;62523;53.336;83.690;2023-07-29T09:34:44;98148.03;;;25.54;56.84
74169;BME280;62523;53.336;83.690;2023-07-29T09:39:46;98155.75;;;25.24;58.66
74169;BME280;62523;53.336;83.690;2023-07-29T09:44:49;98154.06;;;25.03;61.08
74169;BME280;62523;53.336;83.690;2023-07-29T09:49:52;98148.19;;;25.79;57.19
74169;BME280;62523;53.336;83.690;2023-07-29T09:54:54;98153.44;;;25.27;59.20
74169;BME280;62523;53.336;83.690;2023-07-29T09:59:57;98145.31;;;25.61;55.28
74169;BME280;62523;53.336;83.690;2023-07-29T10:05:00;98153.06;;;25.30;55.89
74169;BME280;62523;53.336;83.690;2023-07-29T10:10:04;98147.47;;;25.25;55.15
74169;BME280;62523;53.336;83.690;2023-07-29T10:15:06;98145.59;;;25.12;55.75
74169;BME280;62523;53.336;83.690;2023-07-29T10:20:10;98147.22;;;25.13;56.63
74169;BME280;62523;53.336;83.690;2023-07-29T10:25:22;98148.28;;;25.12;57.89
74169;BME280;62523;53.336;83.690;2023-07-29T10:30:24;98151.81;;;25.00;58.85
74169;BME280;62523;53.336;83.690;2023-07-29T10:35:27;98153.03;;;24.77;60.48
74169;BME280;62523;53.336;83.690;2023-07-29T10:45:50;98146.19;;;24.75;63.65
74169;BME280;62523;53.336;83.690;2023-07-29T10:56:28;98147.22;;;24.67;65.12
74169;BME280;62523;53.336;83.690;2023-07-29T11:01:31;98138.72;;;24.57;65.83
74169;BME280;62523;53.336;83.690;2023-07-29T11:17:54;98134.59;;;25.21;61.45
74169;BME280;62523;53.336;83.690;2023-07-29T11:23:01;98124.44;;;25.29;60.82
74169;BME280;62523;53.336;83.690;2023-07-29T11:28:03;98120.91;;;25.36;62.79
74169;BME280;62523;53.336;83.690;2023-07-29T11:33:05;98121.75;;;24.83;63.21
74169;BME280;62523;53.336;83.690;2023-07-29T11:38:06;98114.09;;;24.73;65.85
74169;BME280;62523;53.336;83.690;2023-07-29T11:43:08;98115.94;;;24.59;65.63
74169;BME280;62523;53.336;83.690;2023-07-29T11:48:10;98116.09;;;24.38;69.40
74169;BME280;62523;53.336;83.690;2023-07-29T11:53:11;98122.97;;;24.53;69.94
74169;BME280;62523;53.336;83.690;2023-07-29T11:58:15;98126.00;;;24.30;72.18
74169;BME280;62523;53.336;83.690;2023-07-29T12:03:17;98103.47;;;24.38;72.21
74169;BME280;62523;53.336;83.690;2023-07-29T12:08:18;98106.94;;;24.25;73.21
74169;BME280;62523;53.336;83.690;2023-07-29T12:13:24;98116.84;;;24.05;74.29
74169;BME280;62523;53.336;83.690;2023-07-29T12:18:30;98116.25;;;24.09;74.53
74169;BME280;62523;53.336;83.690;2023-07-29T12:23:32;98121.19;;;24.12;75.20
74169;BME280;62523;53.336;83.690;2023-07-29T12:28:34;98116.59;;;24.00;76.61
74169;BME280;62523;53.336;83.690;2023-07-29T12:33:37;98122.75;;;23.80;78.31
74169;BME280;62523;53.336;83.690;2023-07-29T12:38:43;98122.34;;;23.83;79.13
74169;BME280;62523;53.336;83.690;2023-07-29T12:43:46;98121.91;;;23.80;80.06
74169;BME280;62523;53.336;83.690;2023-07-29T12:48:47;98133.44;;;23.74;79.89
74169;BME280;62523;53.336;83.690;2023-07-29T12:53:49;98129.09;;;23.73;81.70
74169;BME280;62523;53.336;83.690;2023-07-29T12:58:51;98133.22;;;23.68;82.97
74169;BME280;62523;53.336;83.690;2023-07-29T13:03:54;98136.84;;;23.54;86.58
74169;BME280;62523;53.336;83.690;2023-07-29T13:08:56;98136.16;;;23.39;89.54
74169;BME280;62523;53.336;83.690;2023-07-29T13:13:58;98146.59;;;23.27;92.19
74169;BME280;62523;53.336;83.690;2023-07-29T13:18:59;98158.72;;;23.16;93.72
74169;BME280;62523;53.336;83.690;2023-07-29T13:24:01;98165.53;;;23.19;96.14
74169;BME280;62523;53.336;83.690;2023-07-29T13:29:03;98161.66;;;23.21;95.85
74169;BME280;62523;53.336;83.690;2023-07-29T13:34:05;98152.91;;;23.13;95.50
74169;BME280;62523;53.336;83.690;2023-07-29T13:39:07;98144.06;;;23.19;96.27
74169;BME280;62523;53.336;83.690;2023-07-29T13:44:09;98133.84;;;23.07;97.95
74169;BME280;62523;53.336;83.690;2023-07-29T13:49:10;98132.72;;;22.95;100.00
74169;BME280;62523;53.336;83.690;2023-07-29T13:54:12;98127.72;;;22.92;100.00
74169;BME280;62523;53.336;83.690;2023-07-29T13:59:14;98139.88;;;22.88;100.00
74169;BME280;62523;53.336;83.690;2023-07-29T14:04:16;98143.31;;;22.82;100.00
74169;BME280;62523;53.336;83.690;2023-07-29T14:09:17;98139.31;;;22.71;100.00
74169;BME280;62523;53.336;83.690;2023-07-29T14:14:19;98123.97;;;22.65;100.00
74169;BME280;62523;53.336;83.690;2023-07-29T14:19:20;98122.63;;;22.54;100.00
74169;BME280;62523;53.336;83.690;2023-07-29T14:24:22;98125.06;;;22.49;100.00
74169;BME280;62523;53.336;83.690;2023-07-29T14:29:24;98125.25;;;22.47;100.00
74169;BME280;62523;53.336;83.690;2023-07-29T14:34:25;98103.47;;;22.36;100.00
74169;BME280;62523;53.336;83.690;2023-07-29T14:39:27;98094.91;;;22.25;100.00
74169;BME280;62523;53.336;83.690;2023-07-29T14:44:29;98106.75;;;22.16;100.00
74169;BME280;62523;53.336;83.690;2023-07-29T14:49:30;98111.84;;;22.11;100.00
74169;BME280;62523;53.336;83.690;2023-07-29T14:54:32;98105.34;;;21.99;100.00
74169;BME280;62523;53.336;83.690;2023-07-29T14:59:34;98110.94;;;22.04;100.00
74169;BME280;62523;53.336;83.690;2023-07-29T15:04:35;98108.44;;;22.02;100.00
74169;BME280;62523;53.336;83.690;2023-07-29T15:09:37;98105.69;;;21.96;100.00
74169;BME280;62523;53.336;83.690;2023-07-29T15:14:39;98098.78;;;21.86;100.00
74169;BME280;62523;53.336;83.690;2023-07-29T15:19:40;98097.16;;;21.85;100.00
74169;BME280;62523;53.336;83.690;2023-07-29T15:24:42;98095.56;;;21.76;100.00
74169;BME280;62523;53.336;83.690;2023-07-29T15:29:47;98101.69;;;21.70;100.00
74169;BME280;62523;53.336;83.690;2023-07-29T15:34:49;98101.41;;;21.65;100.00
74169;BME280;62523;53.336;83.690;2023-07-29T15:39:51;98107.59;;;21.65;100.00
74169;BME280;62523;53.336;83.690;2023-07-29T15:44:52;98115.00;;;21.63;100.00
74169;BME280;62523;53.336;83.690;2023-07-29T15:49:54;98114.47;;;21.53;100.00
74169;BME280;62523;53.336;83.690;2023-07-29T15:54:55;98114.91;;;21.42;100.00
74169;BME280;62523;53.336;83.690;2023-07-29T15:59:58;98120.63;;;21.39;100.00
74169;BME280;62523;53.336;83.690;2023-07-29T16:04:59;98112.06;;;21.43;100.00
74169;BME280;62523;53.336;83.690;2023-07-29T16:10:01;98106.94;;;21.34;100.00
74169;BME280;62523;53.336;83.690;2023-07-29T16:15:06;98105.94;;;21.20;100.00
74169;BME280;62523;53.336;83.690;2023-07-29T16:20:08;98099.56;;;21.21;100.00
74169;BME280;62523;53.336;83.690;2023-07-29T16:25:10;98105.72;;;21.06;100.00
74169;BME280;62523;53.336;83.690;2023-07-29T16:30:12;98080.91;;;20.98;100.00
74169;BME280;62523;53.336;83.690;2023-07-29T16:35:14;98074.50;;;20.84;100.00
74169;BME280;62523;53.336;83.690;2023-07-29T16:40:16;98066.19;;;20.79;100.00
74169;BME280;62523;53.336;83.690;2023-07-29T16:45:18;98073.09;;;20.73;100.00
74169;BME280;62523;53.336;83.690;2023-07-29T16:50:19;98058.22;;;20.71;100.00
74169;BME280;62523;53.336;83.690;2023-07-29T16:55:22;98060.44;;;20.67;100.00
74169;BME280;62523;53.336;83.690;2023-07-29T17:00:23;98069.38;;;20.59;100.00
74169;BME280;62523;53.336;83.690;2023-07-29T17:05:25;98057.75;;;20.67;100.00
74169;BME280;62523;53.336;83.690;2023-07-29T17:10:27;98035.19;;;20.70;100.00
74169;BME280;62523;53.336;83.690;2023-07-29T17:15:28;98023.19;;;20.80;100.00
74169;BME280;62523;53.336;83.690;2023-07-29T17:20:30;98000.94;;;20.80;100.00
74169;BME280;62523;53.336;83.690;2023-07-29T17:25:31;97993.94;;;20.79;100.00
74169;BME280;62523;53.336;83.690;2023-07-29T17:30:33;97986.81;;;20.71;100.00
74169;BME280;62523;53.336;83.690;2023-07-29T17:35:42;98010.53;;;20.59;100.00
74169;BME280;62523;53.336;83.690;2023-07-29T17:40:48;98043.84;;;20.49;100.00
74169;BME280;62523;53.336;83.690;2023-07-29T17:45:50;98048.28;;;20.56;100.00
74169;BME280;62523;53.336;83.690;2023-07-29T17:50:52;98051.41;;;20.45;100.00
74169;BME280;62523;53.336;83.690;2023-07-29T17:55:54;98027.97;;;20.47;100.00
74169;BME280;62523;53.336;83.690;2023-07-29T18:00:56;98036.13;;;20.54;100.00
74169;BME280;62523;53.336;83.690;2023-07-29T18:05:59;98040.06;;;20.66;100.00
74169;BME280;62523;53.336;83.690;2023-07-29T18:11:01;98051.78;;;20.80;100.00
74169;BME280;62523;53.336;83.690;2023-07-29T18:16:03;98060.84;;;20.94;100.00
74169;BME280;62523;53.336;83.690;2023-07-29T18:21:05;98061.31;;;20.82;100.00
74169;BME280;62523;53.336;83.690;2023-07-29T18:26:07;98058.53;;;20.76;100.00
74169;BME280;62523;53.336;83.690;2023-07-29T18:31:09;98083.50;;;20.45;100.00
74169;BME280;62523;53.336;83.690;2023-07-29T18:36:11;98111.41;;;19.96;100.00
74169;BME280;62523;53.336;83.690;2023-07-29T18:41:13;98129.28;;;19.96;100.00
74169;BME280;62523;53.336;83.690;2023-07-29T18:46:16;98139.44;;;19.61;100.00
74169;BME280;62523;53.336;83.690;2023-07-29T18:51:18;98145.97;;;19.50;100.00
74169;BME280;62523;53.336;83.690;2023-07-29T18:56:20;98155.25;;;19.23;100.00
74169;BME280;62523;53.336;83.690;2023-07-29T19:01:22;98177.25;;;18.68;100.00
74169;BME280;62523;53.336;83.690;2023-07-29T19:06:24;98168.56;;;18.57;100.00
74169;BME280;62523;53.336;83.690;2023-07-29T19:11:26;98156.72;;;18.52;100.00
74169;BME280;62523;53.336;83.690;2023-07-29T19:16:28;98126.56;;;18.35;100.00
74169;BME280;62523;53.336;83.690;2023-07-29T19:21:30;98104.81;;;17.89;100.00
74169;BME280;62523;53.336;83.690;2023-07-29T19:26:32;98083.13;;;17.41;100.00
74169;BME280;62523;53.336;83.690;2023-07-29T19:31:34;98037.63;;;17.69;100.00
74169;BME280;62523;53.336;83.690;2023-07-29T19:36:36;98001.34;;;17.68;100.00
74169;BME280;62523;53.336;83.690;2023-07-29T19:41:38;97996.53;;;17.79;100.00
74169;BME280;62523;53.336;83.690;2023-07-29T19:46:40;97985.75;;;17.89;100.00
74169;BME280;62523;53.336;83.690;2023-07-29T19:51:42;97953.13;;;18.04;100.00
74169;BME280;62523;53.336;83.690;2023-07-29T19:56:43;97936.31;;;18.03;100.00
74169;BME280;62523;53.336;83.690;2023-07-29T20:01:45;97939.47;;;18.15;100.00
74169;BME280;62523;53.336;83.690;2023-07-29T20:06:47;97954.78;;;18.29;100.00
74169;BME280;62523;53.336;83.690;2023-07-29T20:11:49;97930.94;;;18.19;100.00
74169;BME280;62523;53.336;83.690;2023-07-29T20:16:53;97961.13;;;18.20;100.00
74169;BME280;62523;53.336;83.690;2023-07-29T20:21:55;97968.94;;;18.30;100.00
74169;BME280;62523;53.336;83.690;2023-07-29T20:26:57;97974.78;;;18.17;100.00
74169;BME280;62523;53.336;83.690;2023-07-29T20:31:58;97987.28;;;18.33;100.00
74169;BME280;62523;53.336;83.690;2023-07-29T20:37:00;97997.09;;;18.24;100.00
74169;BME280;62523;53.336;83.690;2023-07-29T20:42:02;97993.06;;;18.36;100.00
74169;BME280;62523;53.336;83.690;2023-07-29T20:47:05;97971.09;;;18.26;100.00
74169;BME280;62523;53.336;83.690;2023-07-29T20:52:07;97962.41;;;18.32;100.00
74169;BME280;62523;53.336;83.690;2023-07-29T20:57:09;97962.41;;;18.32;100.00
74169;BME280;62523;53.336;83.690;2023-07-29T21:02:11;97970.25;;;18.50;100.00
74169;BME280;62523;53.336;83.690;2023-07-29T21:07:13;97973.25;;;18.39;100.00
74169;BME280;62523;53.336;83.690;2023-07-29T21:12:15;97978.75;;;18.37;100.00
74169;BME280;62523;53.336;83.690;2023-07-29T21:17:17;97967.59;;;18.42;100.00
74169;BME280;62523;53.336;83.690;2023-07-29T21:22:19;97970.56;;;18.39;100.00
74169;BME280;62523;53.336;83.690;2023-07-29T21:27:20;97963.75;;;18.36;100.00
74169;BME280;62523;53.336;83.690;2023-07-29T21:32:22;97970.63;;;18.23;100.00
74169;BME280;62523;53.336;83.690;2023-07-29T21:37:24;97962.78;;;18.13;100.00
74169;BME280;62523;53.336;83.690;2023-07-29T21:42:26;97964.28;;;18.07;100.00
74169;BME280;62523;53.336;83.690;2023-07-29T21:47:29;97968.09;;;18.05;100.00
74169;BME280;62523;53.336;83.690;2023-07-29T21:52:31;97966.28;;;17.89;100.00
74169;BME280;62523;53.336;83.690;2023-07-29T21:57:33;97964.94;;;17.85;100.00
74169;BME280;62523;53.336;83.690;2023-07-29T22:02:35;97953.09;;;17.79;100.00
74169;BME280;62523;53.336;83.690;2023-07-29T22:07:36;97947.94;;;17.77;100.00
74169;BME280;62523;53.336;83.690;2023-07-29T22:12:38;97943.59;;;17.76;100.00
74169;BME280;62523;53.336;83.690;2023-07-29T22:17:42;97957.75;;;17.77;100.00
74169;BME280;62523;53.336;83.690;2023-07-29T22:22:44;97949.47;;;17.96;100.00
74169;BME280;62523;53.336;83.690;2023-07-29T22:27:46;97957.78;;;17.93;100.00
74169;BME280;62523;53.336;83.690;2023-07-29T22:32:48;97940.16;;;18.00;100.00
74169;BME280;62523;53.336;83.690;2023-07-29T22:37:58;97935.66;;;18.01;100.00
74169;BME280;62523;53.336;83.690;2023-07-29T22:43:00;97930.31;;;18.01;100.00
74169;BME280;62523;53.336;83.690;2023-07-29T22:48:02;97936.97;;;17.97;100.00
74169;BME280;62523;53.336;83.690;2023-07-29T22:53:04;97951.28;;;17.96;100.00
74169;BME280;62523;53.336;83.690;2023-07-29T22:58:05;97952.97;;;17.89;100.00
74169;BME280;62523;53.336;83.690;2023-07-29T23:03:07;97955.47;;;17.90;100.00
74169;BME280;62523;53.336;83.690;2023-07-29T23:08:09;97956.28;;;17.83;100.00
74169;BME280;62523;53.336;83.690;2023-07-29T23:13:11;97958.78;;;17.92;100.00
74169;BME280;62523;53.336;83.690;2023-07-29T23:18:12;97964.94;;;17.93;100.00
74169;BME280;62523;53.336;83.690;2023-07-29T23:23:14;97963.63;;;17.89;100.00
74169;BME280;62523;53.336;83.690;2023-07-29T23:28:16;97950.06;;;17.66;100.00
74169;BME280;62523;53.336;83.690;2023-07-29T23:33:18;97955.56;;;17.56;100.00
74169;BME280;62523;53.336;83.690;2023-07-29T23:38:20;97947.06;;;17.52;100.00
74169;BME280;62523;53.336;83.690;2023-07-29T23:43:23;97947.22;;;17.51;100.00
74169;BME280;62523;53.336;83.690;2023-07-29T23:48:24;97954.56;;;17.49;100.00
74169;BME280;62523;53.336;83.690;2023-07-29T23:53:26;97942.06;;;17.41;100.00
74169;BME280;62523;53.336;83.690;2023-07-29T23:58:28;97941.91;;;17.43;100.00
